createdAt,value
2023-03-02T00:04:39.535Z,61544
2023-03-02T00:09:41.204Z,61544
2023-03-02T00:14:42.959Z,0
2023-03-02T00:19:44.639Z,0
2023-03-02T00:24:46.285Z,0
2023-03-02T00:29:47.911Z,0
2023-03-02T00:34:49.625Z,0
2023-03-02T00:39:51.299Z,0
2023-03-02T00:44:52.982Z,0
2023-03-02T00:49:54.684Z,61544
2023-03-02T00:54:56.309Z,30744
2023-03-02T00:59:57.910Z,12264
2023-03-02T01:04:59.468Z,5544
2023-03-02T01:10:01.342Z,3567.52941
2023-03-02T01:15:02.929Z,2313.23077
2023-03-02T01:20:04.702Z,15344
2023-03-02T01:25:06.330Z,61544
2023-03-02T01:30:07.962Z,2877.33333
2023-03-02T01:35:09.712Z,61544
2023-03-02T01:40:11.674Z,61544
2023-03-02T01:45:13.294Z,61544
2023-03-02T01:50:14.987Z,61544
2023-03-02T01:55:16.777Z,61544
2023-03-02T02:00:18.379Z,61544
2023-03-02T02:05:19.975Z,61544
2023-03-02T02:10:21.542Z,61544
2023-03-02T02:15:23.129Z,61544
2023-03-02T02:20:25.001Z,61544
2023-03-02T02:25:26.679Z,61544
2023-03-02T02:30:28.278Z,61544
2023-03-02T02:35:29.945Z,61544
2023-03-02T02:40:31.628Z,61544
2023-03-02T02:45:33.407Z,61544
2023-03-02T02:50:35.179Z,61544
2023-03-02T02:55:36.818Z,61544
2023-03-02T03:00:38.567Z,61544
2023-03-02T03:05:40.255Z,61544
2023-03-02T03:10:42.034Z,30744
2023-03-02T03:15:43.695Z,61544
2023-03-02T03:20:45.536Z,61544
2023-03-02T03:25:47.124Z,61544
2023-03-02T03:30:49.073Z,61544
2023-03-02T03:35:50.682Z,30744
2023-03-02T03:40:52.318Z,30744
2023-03-02T03:45:53.962Z,30744
2023-03-02T03:50:55.594Z,61544
2023-03-02T03:55:57.202Z,61544
2023-03-02T04:00:58.810Z,61544
2023-03-02T04:06:00.435Z,61544
2023-03-02T04:11:02.387Z,30744
2023-03-02T04:16:04.076Z,61544
2023-03-02T04:21:05.722Z,61544
2023-03-02T04:26:07.361Z,61544
2023-03-02T04:31:09.035Z,61544
2023-03-02T04:36:10.716Z,61544
2023-03-02T04:41:12.418Z,61544
2023-03-02T04:46:14.128Z,61544
2023-03-02T04:51:15.756Z,61544
2023-03-02T04:56:17.358Z,61544
2023-03-02T05:01:19.118Z,30744
2023-03-02T05:06:20.705Z,30744
2023-03-02T05:11:22.665Z,61544
2023-03-02T05:16:24.428Z,61544
2023-03-02T05:21:26.177Z,61544
2023-03-02T05:26:27.877Z,61544
2023-03-02T05:31:29.704Z,61544
2023-03-02T05:36:31.499Z,61544
2023-03-02T05:41:33.072Z,61544
2023-03-02T05:46:35.310Z,61544
2023-03-02T05:51:37.141Z,61544
2023-03-02T05:56:38.913Z,61544
2023-03-02T06:01:40.693Z,61544
2023-03-02T06:06:42.306Z,61544
2023-03-02T06:11:44.037Z,61544
2023-03-02T06:16:45.823Z,61544
2023-03-02T06:21:47.489Z,61544
2023-03-02T06:26:49.322Z,61544
2023-03-02T06:31:51.200Z,61544
2023-03-02T06:36:52.818Z,61544
2023-03-02T06:41:54.708Z,61544
2023-03-02T06:46:56.365Z,61544
2023-03-02T06:51:57.966Z,61544
2023-03-02T06:56:59.583Z,61544
2023-03-02T07:02:01.314Z,61544
2023-03-02T07:07:02.990Z,61544
2023-03-02T07:12:04.714Z,61544
2023-03-02T07:17:06.359Z,61544
2023-03-02T07:22:08.043Z,61544
2023-03-02T07:27:09.666Z,61544
2023-03-02T07:32:12.678Z,61544
2023-03-02T07:37:14.478Z,61544
2023-03-02T07:42:16.122Z,61544
2023-03-02T07:47:17.749Z,61544
2023-03-02T07:52:19.487Z,61544
2023-03-02T07:57:21.252Z,61544
2023-03-02T08:02:23.009Z,61544
2023-03-02T08:07:24.673Z,61544
2023-03-02T08:12:26.348Z,61544
2023-03-02T08:17:27.963Z,61544
2023-03-02T08:22:29.682Z,61544
2023-03-02T08:27:31.335Z,61544
2023-03-02T08:32:33.188Z,61544
2023-03-02T08:37:34.895Z,61544
2023-03-02T08:42:36.624Z,61544
2023-03-02T08:47:38.382Z,61544
2023-03-02T08:52:40.026Z,61544
2023-03-02T08:57:41.662Z,61544
2023-03-02T09:02:43.328Z,61544
2023-03-02T09:07:44.936Z,61544
2023-03-02T09:12:46.594Z,61544
2023-03-02T09:17:48.257Z,61544
2023-03-02T09:22:49.978Z,61544
2023-03-02T09:27:51.593Z,61544
2023-03-02T09:32:53.371Z,61544
2023-03-02T09:37:55.135Z,61544
2023-03-02T09:42:56.756Z,61544
2023-03-02T09:47:58.396Z,61544
2023-03-02T09:53:00.047Z,61544
2023-03-02T09:58:01.682Z,61544
2023-03-02T10:03:16.251Z,30744
2023-03-02T10:08:19.097Z,61544
2023-03-02T10:13:20.786Z,30744
2023-03-02T10:18:22.420Z,30744
2023-03-02T10:23:24.158Z,61544
2023-03-02T10:28:25.768Z,61544
2023-03-02T10:33:27.455Z,30744
2023-03-02T10:38:29.172Z,30744
2023-03-02T10:43:30.793Z,30744
2023-03-02T10:48:32.364Z,61544
2023-03-02T10:53:34.137Z,61544
2023-03-02T10:58:35.808Z,61544
2023-03-02T11:03:37.428Z,61544
2023-03-02T11:08:39.062Z,61544
2023-03-02T11:13:40.682Z,61544
2023-03-02T11:18:42.263Z,61544
2023-03-02T11:23:43.998Z,61544
2023-03-02T11:28:45.635Z,61544
2023-03-02T11:33:47.961Z,30744
2023-03-02T11:38:49.709Z,30744
2023-03-02T11:43:51.535Z,61544
2023-03-02T11:48:53.112Z,61544
2023-03-02T11:53:54.877Z,30744
2023-03-02T11:58:56.525Z,61544
2023-03-02T12:03:58.167Z,61544
2023-03-02T12:08:59.947Z,61544
2023-03-02T12:14:01.582Z,61544
2023-03-02T12:19:03.225Z,61544
2023-03-02T12:24:04.857Z,30744
2023-03-02T12:29:06.521Z,30744
2023-03-02T12:34:08.158Z,30744
2023-03-02T12:39:09.949Z,61544
2023-03-02T12:44:11.661Z,61544
2023-03-02T12:49:13.626Z,61544
2023-03-02T12:54:15.642Z,30744
2023-03-02T12:59:17.365Z,61544
2023-03-02T13:04:19.149Z,30744
2023-03-02T13:09:20.808Z,30744
2023-03-02T13:14:22.434Z,30744
2023-03-02T13:19:24.059Z,30744
2023-03-02T13:24:25.737Z,30744
2023-03-02T13:29:27.351Z,30744
2023-03-02T13:34:28.970Z,30744
2023-03-02T13:39:30.586Z,30744
2023-03-02T13:44:32.169Z,61544
2023-03-02T13:49:34.023Z,30744
2023-03-02T13:54:35.725Z,61544
2023-03-02T13:59:37.320Z,61544
2023-03-02T14:04:39.117Z,61544
2023-03-02T14:09:40.807Z,61544
2023-03-02T14:14:44.471Z,61544
2023-03-02T14:19:46.977Z,61544
2023-03-02T14:24:48.564Z,61544
2023-03-02T14:29:50.374Z,61544
2023-03-02T14:34:52.018Z,61544
2023-03-02T14:39:55.244Z,61544
2023-03-02T14:44:58.490Z,61544
2023-03-02T14:50:00.829Z,61544
2023-03-02T14:55:02.435Z,61544
2023-03-02T15:00:04.092Z,61544
2023-03-02T15:05:05.758Z,61544
2023-03-02T15:10:07.437Z,61544
2023-03-02T15:15:09.273Z,61544
2023-03-02T15:20:10.958Z,61544
2023-03-02T15:25:12.656Z,61544
2023-03-02T15:30:14.280Z,61544
2023-03-02T15:35:15.875Z,61544
2023-03-02T15:40:17.487Z,61544
2023-03-02T15:45:19.127Z,61544
2023-03-02T15:50:20.740Z,61544
2023-03-02T15:55:22.397Z,61544
2023-03-02T16:00:24.198Z,61544
2023-03-02T16:05:25.846Z,61544
2023-03-02T16:10:27.462Z,61544
2023-03-02T16:15:29.070Z,61544
2023-03-02T16:20:30.667Z,61544
2023-03-02T16:25:32.391Z,61544
2023-03-02T16:30:34.012Z,61544
2023-03-02T16:35:35.713Z,61544
2023-03-02T16:40:37.375Z,61544
2023-03-02T16:45:39.234Z,61544
2023-03-02T16:50:40.893Z,61544
2023-03-02T16:55:42.601Z,61544
2023-03-02T17:00:44.308Z,61544
2023-03-02T17:05:45.932Z,61544
2023-03-02T17:10:47.619Z,61544
2023-03-02T17:15:49.279Z,30744
2023-03-02T17:20:50.983Z,30744
2023-03-02T17:25:52.593Z,30744
2023-03-02T17:30:54.266Z,61544
2023-03-02T17:35:56.020Z,61544
2023-03-02T17:40:58.318Z,61544
2023-03-02T17:45:59.973Z,61544
2023-03-02T17:51:01.823Z,61544
2023-03-02T17:56:03.468Z,61544
2023-03-02T18:01:05.069Z,20477.33333
2023-03-02T18:06:06.717Z,61544
2023-03-02T18:11:08.395Z,61544
2023-03-02T18:16:10.020Z,20477.33333
2023-03-02T18:21:11.603Z,61544
2023-03-02T18:26:14.071Z,61544
2023-03-02T18:31:15.824Z,61544
2023-03-02T18:36:17.566Z,61544
2023-03-02T18:41:19.163Z,61544
2023-03-02T18:46:20.923Z,61544
2023-03-02T18:51:22.554Z,61544
2023-03-02T18:56:24.495Z,61544
2023-03-02T19:01:26.058Z,61544
2023-03-02T19:06:27.717Z,61544
2023-03-02T19:11:29.302Z,61544
2023-03-02T19:16:31.047Z,61544
2023-03-02T19:21:32.720Z,61544
2023-03-02T19:26:34.339Z,61544
2023-03-02T19:31:35.981Z,61544
2023-03-02T19:36:37.641Z,61544
2023-03-02T19:41:39.245Z,61544
2023-03-02T19:46:40.938Z,61544
2023-03-02T19:51:42.551Z,61544
2023-03-02T19:56:44.328Z,61544
2023-03-02T20:01:46.031Z,61544
2023-03-02T20:06:47.631Z,0
2023-03-02T20:11:49.397Z,61544
2023-03-02T20:16:51.077Z,61544
2023-03-02T20:21:53.005Z,61544
2023-03-02T20:26:54.655Z,61544
2023-03-02T20:31:56.325Z,61544
2023-03-02T20:36:57.988Z,0
2023-03-02T20:41:59.594Z,61544
2023-03-02T20:47:01.190Z,61544
2023-03-02T20:52:02.905Z,61544
2023-03-02T20:57:04.771Z,0
2023-03-02T21:02:06.412Z,0
2023-03-02T21:07:08.091Z,61544
2023-03-02T21:12:09.792Z,0
2023-03-02T21:17:11.579Z,0
2023-03-02T21:22:13.186Z,0
2023-03-02T21:27:14.893Z,0
2023-03-02T21:32:16.573Z,0
2023-03-02T21:37:18.577Z,0
2023-03-02T21:42:20.235Z,0
2023-03-02T21:47:22.153Z,0
2023-03-02T21:52:23.941Z,61544
2023-03-02T21:57:25.582Z,0
2023-03-02T22:02:27.202Z,0
2023-03-02T22:07:28.846Z,0
2023-03-02T22:12:30.590Z,0
2023-03-02T22:17:32.486Z,0
2023-03-02T22:22:34.102Z,0
2023-03-02T22:27:35.828Z,0
2023-03-02T22:32:37.487Z,0
2023-03-02T22:37:39.141Z,0
2023-03-02T22:42:41.115Z,0
2023-03-02T22:47:42.781Z,0
2023-03-02T22:52:44.650Z,0
2023-03-02T22:57:46.480Z,0
2023-03-02T23:02:48.113Z,61544
2023-03-02T23:07:49.734Z,61544
2023-03-02T23:12:51.483Z,61544
2023-03-02T23:17:53.206Z,61544
2023-03-02T23:22:54.891Z,61544
2023-03-02T23:27:56.644Z,61544
2023-03-02T23:32:58.835Z,61544
2023-03-02T23:38:00.477Z,61544
2023-03-02T23:43:02.156Z,61544
2023-03-02T23:48:03.868Z,61544
2023-03-02T23:53:05.496Z,61544
2023-03-02T23:58:07.133Z,61544
